createdAt,value
2022-09-02T00:01:25.001Z,4.95
2022-09-02T00:03:56.037Z,4.95
2022-09-02T00:06:23.329Z,4.88
2022-09-02T00:08:50.073Z,5.30
2022-09-02T00:11:19.809Z,4.80
2022-09-02T00:13:47.183Z,5.07
2022-09-02T00:16:14.370Z,5.15
2022-09-02T00:18:45.919Z,5.03
2022-09-02T00:21:15.136Z,5.50
2022-09-02T00:23:43.894Z,5.30
2022-09-02T00:26:11.590Z,4.68
2022-09-02T00:28:39.076Z,5.10
2022-09-02T00:31:07.638Z,5.03
2022-09-02T00:33:35.447Z,5.50
2022-09-02T00:36:03.985Z,5.35
2022-09-02T00:38:35.475Z,5.22
2022-09-02T00:41:05.812Z,5.40
2022-09-02T00:43:49.330Z,5.20
2022-09-02T00:46:18.689Z,4.80
2022-09-02T00:48:55.881Z,5.20
2022-09-02T00:51:23.423Z,4.85
2022-09-02T00:53:50.986Z,5.10
2022-09-02T00:56:22.817Z,5.50
2022-09-02T00:58:52.050Z,6.18
2022-09-02T01:01:20.768Z,5.47
2022-09-02T01:03:47.933Z,5.10
2022-09-02T01:06:17.284Z,4.93
2022-09-02T01:08:48.996Z,5.10
2022-09-02T01:11:18.806Z,5.00
2022-09-02T01:13:45.592Z,5.15
2022-09-02T01:16:27.224Z,4.85
2022-09-02T01:18:59.050Z,5.43
2022-09-02T01:21:25.746Z,4.90
2022-09-02T01:23:53.847Z,5.05
2022-09-02T01:26:20.619Z,5.25
2022-09-02T01:28:47.305Z,4.70
2022-09-02T01:31:14.104Z,5.45
2022-09-02T01:33:40.785Z,5.18
2022-09-02T01:36:10.122Z,4.70
2022-09-02T01:38:37.118Z,4.90
2022-09-02T01:41:03.808Z,5.30
2022-09-02T01:43:30.632Z,5.93
2022-09-02T01:45:59.511Z,4.85
2022-09-02T01:48:26.458Z,5.03
2022-09-02T01:50:57.576Z,5.15
2022-09-02T01:53:24.677Z,4.60
2022-09-02T01:55:51.930Z,4.97
2022-09-02T01:58:19.359Z,4.95
2022-09-02T02:00:46.679Z,5.35
2022-09-02T02:03:13.961Z,4.90
2022-09-02T02:05:41.346Z,4.90
2022-09-02T02:08:08.213Z,4.90
2022-09-02T02:10:35.322Z,4.70
2022-09-02T02:13:02.695Z,4.80
2022-09-02T02:17:55.013Z,4.97
2022-09-02T02:20:22.080Z,4.93
2022-09-02T02:22:49.186Z,5.10
2022-09-02T02:25:17.192Z,5.30
2022-09-02T02:27:44.994Z,5.00
2022-09-02T02:30:13.947Z,5.00
2022-09-02T02:32:41.901Z,5.18
2022-09-02T02:35:09.282Z,4.97
2022-09-02T02:37:36.371Z,5.03
2022-09-02T02:40:04.365Z,4.95
2022-09-02T02:42:31.025Z,4.93
2022-09-02T02:44:57.714Z,5.45
2022-09-02T02:47:24.981Z,5.00
2022-09-02T02:49:51.683Z,4.95
2022-09-02T02:52:18.367Z,5.10
2022-09-02T02:54:45.140Z,5.15
2022-09-02T02:57:13.599Z,5.15
2022-09-02T02:59:40.298Z,5.10
2022-09-02T03:02:07.306Z,5.40
2022-09-02T03:04:34.342Z,5.47
2022-09-02T03:07:01.152Z,4.88
2022-09-02T03:09:27.894Z,5.25
2022-09-02T03:11:54.688Z,5.10
2022-09-02T03:14:21.959Z,5.10
2022-09-02T03:16:48.624Z,5.05
2022-09-02T03:19:15.349Z,4.90
2022-09-02T03:21:42.665Z,5.30
2022-09-02T03:24:11.340Z,5.35
2022-09-02T03:26:38.593Z,5.68
2022-09-02T03:29:05.317Z,4.90
2022-09-02T03:31:32.163Z,5.30
2022-09-02T03:33:59.364Z,5.50
2022-09-02T03:36:32.303Z,5.13
2022-09-02T03:38:59.574Z,5.35
2022-09-02T03:41:26.407Z,5.70
2022-09-02T03:43:53.134Z,5.22
2022-09-02T03:46:20.031Z,5.60
2022-09-02T03:48:47.408Z,5.47
2022-09-02T03:51:14.329Z,5.47
2022-09-02T03:53:41.035Z,5.53
2022-09-02T03:56:13.046Z,5.15
2022-09-02T03:58:41.036Z,5.38
2022-09-02T04:01:12.874Z,5.28
2022-09-02T04:03:39.628Z,5.10
2022-09-02T04:06:10.077Z,5.10
2022-09-02T04:08:37.104Z,5.93
2022-09-02T04:11:14.795Z,4.95
2022-09-02T04:13:41.543Z,5.20
2022-09-02T04:16:14.335Z,5.10
2022-09-02T04:18:41.847Z,4.97
2022-09-02T04:21:09.532Z,5.25
2022-09-02T04:23:36.946Z,5.60
2022-09-02T04:26:06.792Z,5.25
2022-09-02T04:28:33.803Z,5.60
2022-09-02T04:31:03.541Z,5.15
2022-09-02T04:33:30.267Z,5.40
2022-09-02T04:35:56.929Z,5.22
2022-09-02T04:38:23.596Z,5.30
2022-09-02T04:40:50.400Z,5.65
2022-09-02T04:43:18.039Z,5.30
2022-09-02T04:45:46.136Z,4.90
2022-09-02T04:48:13.047Z,5.50
2022-09-02T04:50:41.375Z,6.00
2022-09-02T04:53:08.291Z,6.20
2022-09-02T04:55:35.315Z,5.30
2022-09-02T04:58:02.018Z,5.10
2022-09-02T05:00:28.776Z,5.00
2022-09-02T05:02:55.802Z,5.30
2022-09-02T05:05:22.960Z,5.28
2022-09-02T05:07:49.677Z,5.53
2022-09-02T05:10:16.654Z,5.40
2022-09-02T05:12:43.627Z,5.03
2022-09-02T05:15:12.034Z,5.00
2022-09-02T05:17:38.942Z,4.72
2022-09-02T05:20:07.817Z,4.70
2022-09-02T05:22:35.691Z,5.15
2022-09-02T05:25:03.693Z,5.40
2022-09-02T05:27:30.359Z,5.35
2022-09-02T05:29:59.515Z,5.32
2022-09-02T05:32:27.752Z,4.90
2022-09-02T05:34:56.034Z,5.00
2022-09-02T05:37:24.472Z,5.13
2022-09-02T05:39:52.290Z,5.30
2022-09-02T05:42:20.489Z,5.38
2022-09-02T05:44:47.462Z,5.47
2022-09-02T05:47:14.252Z,5.10
2022-09-02T05:49:40.932Z,4.68
2022-09-02T05:52:10.237Z,5.05
2022-09-02T05:54:38.977Z,5.15
2022-09-02T05:57:13.627Z,5.15
2022-09-02T05:59:42.365Z,5.20
2022-09-02T06:02:11.466Z,5.10
2022-09-02T06:04:46.529Z,5.38
2022-09-02T06:07:14.759Z,4.90
2022-09-02T06:09:42.059Z,5.00
2022-09-02T06:12:08.824Z,4.72
2022-09-02T06:14:35.774Z,4.90
2022-09-02T06:17:02.519Z,4.65
2022-09-02T06:19:32.647Z,5.00
2022-09-02T06:22:01.986Z,4.88
2022-09-02T06:24:30.066Z,5.28
2022-09-02T06:26:57.690Z,4.60
2022-09-02T06:29:25.898Z,4.72
2022-09-02T06:31:53.278Z,4.72
2022-09-02T06:34:23.412Z,5.00
2022-09-02T06:36:51.100Z,4.95
2022-09-02T06:39:20.546Z,5.03
2022-09-02T06:41:48.981Z,5.25
2022-09-02T06:44:17.159Z,5.10
2022-09-02T06:46:47.841Z,4.50
2022-09-02T06:49:16.419Z,5.05
2022-09-02T06:51:45.659Z,4.40
2022-09-02T06:54:15.162Z,5.30
2022-09-02T06:56:49.090Z,4.70
2022-09-02T06:59:20.246Z,4.60
2022-09-02T07:01:48.122Z,4.30
2022-09-02T07:04:34.895Z,4.40
2022-09-02T07:07:04.693Z,3.70
2022-09-02T07:09:31.622Z,4.27
2022-09-02T07:12:04.715Z,4.57
2022-09-02T07:14:35.650Z,3.67
2022-09-02T07:17:02.443Z,3.70
2022-09-02T07:19:29.142Z,3.53
2022-09-02T07:21:55.924Z,3.33
2022-09-02T07:24:23.651Z,3.10
2022-09-02T07:26:55.601Z,3.20
2022-09-02T07:29:23.168Z,2.70
2022-09-02T07:31:50.374Z,2.70
2022-09-02T07:34:18.924Z,2.60
2022-09-02T07:36:46.013Z,2.67
2022-09-02T07:39:13.703Z,2.63
2022-09-02T07:41:41.715Z,3.43
2022-09-02T07:44:08.879Z,2.70
2022-09-02T07:46:36.073Z,2.17
2022-09-02T07:49:06.577Z,2.70
2022-09-02T07:51:39.022Z,2.60
2022-09-02T07:54:07.116Z,2.47
2022-09-02T07:56:34.155Z,2.77
2022-09-02T07:59:01.616Z,2.70
2022-09-02T08:01:28.626Z,2.30
2022-09-02T08:03:55.554Z,2.70
2022-09-02T08:06:33.822Z,2.30
2022-09-02T08:09:04.552Z,2.40
2022-09-02T08:11:32.724Z,2.73
2022-09-02T08:14:00.580Z,2.37
2022-09-02T08:16:27.432Z,2.60
2022-09-02T08:18:54.563Z,2.50
2022-09-02T08:21:21.755Z,2.23
2022-09-02T08:23:50.112Z,2.47
2022-09-02T08:26:17.939Z,2.30
2022-09-02T08:28:44.634Z,2.43
2022-09-02T08:31:12.429Z,2.40
2022-09-02T08:33:39.169Z,2.60
2022-09-02T08:36:09.059Z,2.67
2022-09-02T08:38:36.838Z,2.40
2022-09-02T08:41:21.161Z,2.50
2022-09-02T08:43:50.106Z,2.53
2022-09-02T08:46:18.444Z,2.50
2022-09-02T08:48:53.838Z,2.30
2022-09-02T08:51:37.306Z,2.87
2022-09-02T08:54:33.443Z,2.70
2022-09-02T08:57:00.269Z,2.57
2022-09-02T08:59:30.771Z,3.03
2022-09-02T09:02:23.965Z,2.23
2022-09-02T09:05:17.223Z,2.97
2022-09-02T09:07:49.903Z,2.87
2022-09-02T09:10:30.027Z,2.57
2022-09-02T09:12:56.791Z,2.90
2022-09-02T09:15:42.135Z,2.60
2022-09-02T09:18:14.110Z,2.90
2022-09-02T09:20:44.446Z,2.73
2022-09-02T09:23:29.727Z,2.90
2022-09-02T09:26:11.009Z,2.80
2022-09-02T09:28:40.872Z,3.03
2022-09-02T09:31:15.542Z,2.97
2022-09-02T09:33:55.295Z,2.90
2022-09-02T09:36:42.210Z,3.00
2022-09-02T09:39:23.443Z,3.03
2022-09-02T09:41:52.047Z,2.80
2022-09-02T09:44:37.349Z,2.80
2022-09-02T09:47:08.133Z,2.87
2022-09-02T09:49:34.932Z,2.60
2022-09-02T09:52:01.835Z,2.50
2022-09-02T09:54:28.634Z,2.50
2022-09-02T09:56:56.159Z,2.67
2022-09-02T09:59:56.854Z,3.00
2022-09-02T10:02:26.538Z,2.50
2022-09-02T10:04:55.649Z,2.83
2022-09-02T10:07:36.347Z,2.47
2022-09-02T10:10:17.837Z,2.50
2022-09-02T10:12:47.207Z,2.40
2022-09-02T10:15:14.287Z,2.27
2022-09-02T10:17:55.457Z,2.70
2022-09-02T10:20:48.634Z,2.60
2022-09-02T10:23:42.826Z,2.67
2022-09-02T10:26:20.378Z,2.37
2022-09-02T10:28:47.146Z,2.80
2022-09-02T10:31:41.148Z,2.70
2022-09-02T10:34:40.112Z,2.50
2022-09-02T10:37:23.462Z,2.63
2022-09-02T10:40:15.033Z,2.67
2022-09-02T10:42:48.951Z,2.40
2022-09-02T10:45:31.549Z,2.50
2022-09-02T10:48:14.754Z,2.50
2022-09-02T10:51:05.999Z,2.83
2022-09-02T10:54:14.058Z,2.70
2022-09-02T10:56:58.341Z,2.70
2022-09-02T10:59:54.431Z,2.83
2022-09-02T11:02:47.553Z,2.50
2022-09-02T11:05:23.327Z,2.70
2022-09-02T11:07:58.231Z,3.20
2022-09-02T11:11:09.403Z,2.70
2022-09-02T11:13:47.793Z,3.13
2022-09-02T11:16:27.550Z,2.70
2022-09-02T11:19:00.459Z,2.80
2022-09-02T11:21:56.503Z,2.63
2022-09-02T11:24:28.443Z,2.63
2022-09-02T11:27:42.255Z,2.70
2022-09-02T11:30:18.315Z,2.37
2022-09-02T11:33:07.671Z,2.40
2022-09-02T11:35:38.862Z,2.33
2022-09-02T11:38:10.382Z,2.57
2022-09-02T11:41:32.658Z,2.70
2022-09-02T11:43:46.519Z,2.70
2022-09-02T11:46:25.864Z,2.20
2022-09-02T11:49:11.811Z,2.90
2022-09-02T11:52:09.469Z,2.17
2022-09-02T11:54:46.269Z,2.70
2022-09-02T11:57:22.102Z,2.40
2022-09-02T11:59:51.671Z,2.50
2022-09-02T12:02:43.255Z,2.30
2022-09-02T12:05:29.814Z,2.57
2022-09-02T12:08:04.260Z,2.50
2022-09-02T12:10:43.358Z,2.47
2022-09-02T12:13:31.580Z,2.70
2022-09-02T12:16:30.262Z,2.60
2022-09-02T12:18:58.276Z,2.77
2022-09-02T12:21:26.387Z,2.60
2022-09-02T12:23:56.023Z,2.70
2022-09-02T12:26:37.474Z,2.90
2022-09-02T12:29:19.382Z,2.40
2022-09-02T12:31:51.783Z,3.03
2022-09-02T12:34:21.463Z,2.20
2022-09-02T12:36:55.193Z,2.30
2022-09-02T12:39:25.351Z,2.47
2022-09-02T12:41:54.993Z,2.50
2022-09-02T12:44:46.092Z,2.70
2022-09-02T12:47:50.698Z,2.33
2022-09-02T12:50:50.835Z,2.10
2022-09-02T12:53:23.534Z,2.10
2022-09-02T12:56:13.350Z,2.23
2022-09-02T12:58:45.907Z,2.47
2022-09-02T13:01:34.923Z,2.40
2022-09-02T13:04:22.645Z,2.50
2022-09-02T13:07:14.017Z,2.40
2022-09-02T13:10:15.680Z,2.40
2022-09-02T13:13:07.039Z,2.60
2022-09-02T13:16:17.377Z,2.87
2022-09-02T13:19:22.522Z,2.50
2022-09-02T13:22:19.300Z,2.53
2022-09-02T13:25:13.030Z,2.57
2022-09-02T13:27:52.306Z,2.47
2022-09-02T13:30:19.496Z,4.20
2022-09-02T13:32:56.535Z,2.67
2022-09-02T13:35:27.944Z,2.47
2022-09-02T13:38:02.754Z,2.30
2022-09-02T13:40:33.440Z,2.57
2022-09-02T13:43:03.478Z,2.60
2022-09-02T13:45:34.036Z,2.37
2022-09-02T13:48:27.773Z,2.30
2022-09-02T13:50:59.186Z,2.20
2022-09-02T13:53:53.717Z,2.80
2022-09-02T13:56:30.827Z,2.60
2022-09-02T13:58:57.764Z,2.57
2022-09-02T14:01:31.616Z,2.50
2022-09-02T14:04:05.842Z,2.60
2022-09-02T14:06:37.088Z,2.70
2022-09-02T14:09:08.430Z,2.40
2022-09-02T14:11:46.474Z,2.90
2022-09-02T14:14:19.657Z,2.60
2022-09-02T14:16:46.437Z,2.60
2022-09-02T14:19:21.998Z,2.53
2022-09-02T14:21:52.771Z,2.67
2022-09-02T14:24:25.719Z,2.90
2022-09-02T14:26:55.589Z,3.17
2022-09-02T14:29:23.659Z,2.63
2022-09-02T14:32:27.197Z,2.70
2022-09-02T14:35:23.066Z,2.63
2022-09-02T14:37:59.639Z,3.00
2022-09-02T14:40:42.969Z,2.83
2022-09-02T14:43:16.213Z,3.00
2022-09-02T14:45:48.673Z,2.60
2022-09-02T14:48:25.600Z,2.83
2022-09-02T14:51:05.108Z,3.00
2022-09-02T14:53:32.440Z,2.83
2022-09-02T14:55:59.821Z,2.70
2022-09-02T14:58:28.112Z,2.90
2022-09-02T15:00:57.985Z,2.60
2022-09-02T15:03:26.111Z,2.60
2022-09-02T15:05:53.793Z,2.70
2022-09-02T15:08:21.101Z,2.70
2022-09-02T15:10:48.766Z,2.67
2022-09-02T15:13:24.433Z,2.70
2022-09-02T15:15:52.604Z,3.10
2022-09-02T15:18:19.398Z,2.60
2022-09-02T15:20:46.159Z,2.90
2022-09-02T15:23:12.839Z,2.70
2022-09-02T15:25:40.038Z,2.90
2022-09-02T15:28:06.768Z,3.00
2022-09-02T15:30:37.036Z,3.17
2022-09-02T15:33:05.495Z,3.00
2022-09-02T15:35:34.096Z,3.00
2022-09-02T15:38:02.108Z,2.80
2022-09-02T15:40:29.947Z,2.90
2022-09-02T15:42:57.460Z,2.87
2022-09-02T15:45:24.424Z,2.83
2022-09-02T15:47:51.123Z,2.80
2022-09-02T15:50:17.843Z,2.80
2022-09-02T15:52:47.390Z,2.80
2022-09-02T15:55:14.252Z,3.10
2022-09-02T15:57:41.278Z,3.30
2022-09-02T16:00:09.170Z,3.10
2022-09-02T16:02:36.751Z,2.90
2022-09-02T16:05:03.638Z,2.93
2022-09-02T16:07:31.089Z,3.50
2022-09-02T16:10:01.347Z,3.20
2022-09-02T16:12:31.537Z,3.30
2022-09-02T16:14:58.224Z,3.13
2022-09-02T16:17:24.956Z,3.43
2022-09-02T16:19:51.638Z,3.13
2022-09-02T16:22:18.323Z,2.90
2022-09-02T16:24:45.148Z,3.30
2022-09-02T16:27:11.864Z,3.23
2022-09-02T16:29:39.522Z,3.27
2022-09-02T16:34:55.633Z,3.10
2022-09-02T16:37:22.300Z,3.20
2022-09-02T16:39:49.161Z,3.10
2022-09-02T16:42:15.850Z,3.00
2022-09-02T16:44:42.554Z,3.60
2022-09-02T16:47:09.254Z,3.17
2022-09-02T16:49:39.636Z,3.20
2022-09-02T16:52:06.704Z,3.20
2022-09-02T16:54:37.365Z,3.07
2022-09-02T16:57:07.108Z,3.50
2022-09-02T16:59:33.872Z,3.20
2022-09-02T17:02:00.832Z,3.40
2022-09-02T17:04:27.728Z,3.20
2022-09-02T17:06:56.356Z,3.10
2022-09-02T17:09:22.996Z,3.60
2022-09-02T17:11:49.714Z,3.47
2022-09-02T17:14:21.611Z,3.13
2022-09-02T17:16:50.175Z,3.20
2022-09-02T17:19:22.390Z,3.00
2022-09-02T17:21:51.277Z,3.17
2022-09-02T17:24:19.771Z,3.57
2022-09-02T17:26:50.497Z,3.30
2022-09-02T17:29:46.832Z,3.17
2022-09-02T17:32:06.859Z,3.33
2022-09-02T17:34:33.825Z,3.30
2022-09-02T17:37:00.708Z,3.30
2022-09-02T17:39:27.498Z,3.37
2022-09-02T17:41:54.338Z,3.07
2022-09-02T17:44:33.389Z,3.50
2022-09-02T17:47:00.647Z,3.20
2022-09-02T17:49:28.478Z,3.20
2022-09-02T17:51:55.195Z,3.67
2022-09-02T17:54:22.667Z,3.37
2022-09-02T17:57:03.219Z,3.33
2022-09-02T17:59:53.312Z,3.57
2022-09-02T18:02:40.544Z,3.60
2022-09-02T18:05:29.110Z,3.27
2022-09-02T18:08:01.884Z,3.10
2022-09-02T18:10:44.285Z,3.37
2022-09-02T18:13:13.742Z,3.60
2022-09-02T18:15:57.759Z,3.40
2022-09-02T18:18:27.894Z,3.40
2022-09-02T18:21:09.178Z,3.30
2022-09-02T18:23:41.553Z,3.60
2022-09-02T18:26:24.416Z,3.40
2022-09-02T18:29:01.327Z,3.50
2022-09-02T18:31:51.015Z,4.37
2022-09-02T18:34:51.463Z,3.50
2022-09-02T18:38:03.994Z,3.50
2022-09-02T18:40:44.112Z,3.60
2022-09-02T18:43:36.685Z,4.10
2022-09-02T18:46:05.158Z,3.57
2022-09-02T18:48:37.723Z,3.87
2022-09-02T18:51:10.141Z,3.90
2022-09-02T18:53:45.686Z,4.03
2022-09-02T18:56:13.129Z,3.77
2022-09-02T18:59:10.699Z,3.87
2022-09-02T19:01:44.019Z,4.10
2022-09-02T19:04:11.321Z,3.70
2022-09-02T19:06:39.984Z,4.13
2022-09-02T19:09:14.900Z,4.23
2022-09-02T19:11:41.983Z,4.13
2022-09-02T19:14:08.600Z,3.80
2022-09-02T19:16:38.404Z,4.00
2022-09-02T19:19:06.572Z,4.00
2022-09-02T19:21:48.042Z,3.80
2022-09-02T19:24:25.937Z,3.80
2022-09-02T19:27:01.909Z,3.97
2022-09-02T19:29:29.070Z,3.80
2022-09-02T19:31:55.876Z,3.70
2022-09-02T19:34:24.035Z,4.00
2022-09-02T19:36:52.542Z,3.63
2022-09-02T19:39:19.303Z,3.90
2022-09-02T19:41:47.638Z,3.60
2022-09-02T19:44:15.523Z,4.23
2022-09-02T19:49:28.899Z,3.80
2022-09-02T19:51:56.517Z,4.20
2022-09-02T19:54:23.459Z,4.30
2022-09-02T19:56:50.170Z,3.90
2022-09-02T19:59:17.090Z,3.70
2022-09-02T20:01:43.836Z,3.60
2022-09-02T20:04:11.549Z,3.83
2022-09-02T20:06:38.426Z,3.87
2022-09-02T20:09:06.870Z,3.83
2022-09-02T20:11:34.317Z,3.90
2022-09-02T20:14:04.326Z,3.93
2022-09-02T20:16:32.940Z,4.10
2022-09-02T20:18:59.643Z,4.13
2022-09-02T20:21:29.769Z,3.80
2022-09-02T20:24:06.264Z,4.10
2022-09-02T20:26:58.969Z,4.00
2022-09-02T20:29:35.872Z,3.93
2022-09-02T20:32:40.173Z,4.10
2022-09-02T20:35:25.610Z,4.20
2022-09-02T20:38:06.790Z,3.70
2022-09-02T20:40:47.662Z,3.90
2022-09-02T20:43:18.020Z,3.90
2022-09-02T20:45:54.430Z,3.95
2022-09-02T20:48:48.901Z,3.43
2022-09-02T20:51:36.015Z,4.00
2022-09-02T20:54:20.614Z,3.80
2022-09-02T20:57:04.567Z,3.90
2022-09-02T20:59:55.263Z,4.30
2022-09-02T21:02:28.372Z,4.27
2022-09-02T21:05:22.506Z,4.10
2022-09-02T21:07:58.504Z,3.87
2022-09-02T21:10:34.446Z,3.83
2022-09-02T21:13:14.087Z,3.90
2022-09-02T21:15:58.985Z,4.00
2022-09-02T21:18:46.260Z,3.93
2022-09-02T21:21:46.082Z,4.13
2022-09-02T21:24:24.061Z,4.23
2022-09-02T21:27:03.580Z,4.27
2022-09-02T21:29:39.623Z,4.10
2022-09-02T21:32:09.496Z,4.17
2022-09-02T21:34:40.718Z,4.00
2022-09-02T21:37:09.948Z,3.93
2022-09-02T21:39:42.965Z,4.37
2022-09-02T21:42:31.809Z,3.80
2022-09-02T21:45:01.214Z,3.67
2022-09-02T21:47:41.101Z,4.25
2022-09-02T21:50:22.144Z,4.20
2022-09-02T21:52:49.011Z,4.13
2022-09-02T21:55:35.197Z,4.60
2022-09-02T21:58:16.987Z,4.10
2022-09-02T22:00:49.425Z,4.30
2022-09-02T22:03:40.139Z,4.60
2022-09-02T22:06:13.013Z,4.20
2022-09-02T22:09:03.978Z,4.30
2022-09-02T22:11:42.095Z,4.23
2022-09-02T22:14:16.360Z,4.40
2022-09-02T22:16:55.955Z,4.03
2022-09-02T22:19:30.439Z,4.00
2022-09-02T22:22:07.663Z,4.20
2022-09-02T22:24:37.233Z,4.30
2022-09-02T22:27:11.483Z,4.33
2022-09-02T22:29:54.607Z,4.20
2022-09-02T22:32:24.942Z,4.00
2022-09-02T22:35:09.842Z,4.23
2022-09-02T22:38:09.547Z,4.45
2022-09-02T22:41:03.339Z,4.50
2022-09-02T22:43:41.871Z,4.30
2022-09-02T22:46:32.207Z,4.50
2022-09-02T22:49:24.600Z,4.43
2022-09-02T22:52:23.590Z,4.30
2022-09-02T22:54:52.217Z,4.53
2022-09-02T22:57:45.414Z,4.70
2022-09-02T23:00:15.250Z,4.40
2022-09-02T23:02:54.683Z,4.50
2022-09-02T23:05:44.322Z,4.50
2022-09-02T23:08:13.995Z,4.55
2022-09-02T23:10:57.763Z,4.43
2022-09-02T23:13:58.218Z,4.60
2022-09-02T23:16:48.438Z,4.40
2022-09-02T23:19:56.403Z,4.47
2022-09-02T23:22:33.897Z,4.30
2022-09-02T23:25:35.952Z,4.70
2022-09-02T23:28:20.781Z,4.83
2022-09-02T23:31:05.305Z,4.70
2022-09-02T23:33:44.238Z,4.50
2022-09-02T23:36:15.118Z,4.93
2022-09-02T23:39:19.115Z,4.47
2022-09-02T23:41:46.194Z,4.60
2022-09-02T23:44:12.912Z,4.47
2022-09-02T23:47:01.434Z,4.55
2022-09-02T23:49:49.024Z,4.43
2022-09-02T23:52:42.869Z,4.65
2022-09-02T23:55:24.031Z,4.50
2022-09-02T23:58:10.080Z,5.38
